Impacts METAR Board
IDs:

KEWR - Newark Intl, NJ, US

Updated at: 0900 UTC 25 May 2020
Potential Impact None Slight Moderate High
Time 24/21Z 24/22Z 24/23Z 25/00Z 25/01Z 25/02Z 25/03Z 25/04Z 25/05Z 25/06Z 25/07Z 25/08Z 25/09Z
Temp66 64 63 60 59 59 59 58 58 59 59 57 56
Dewpt52 53 52 51 52 53 53 53 53 53 53 54 55
Altim30.23 30.22 30.22 30.21 30.22 30.23 30.24 30.23 30.23 30.20 30.21 30.21 30.20
VIS10 10 10 10 10 10 10 10 10 10 10 6 6
CIG250 250 250 250 250 250 250 250 19 19 15 8 7
CoverBKNBKNBKNBKNBKNBKNBKNBKNOVCOVCOVCOVCOVC
FltCatVFRVFRVFRVFRVFRVFRVFRVFRMVFRMVFRMVFRIFRIFR
WX-----------------------DZ BR-DZ BR
WDir1401401201401301401201300290102030
WSpd10 9 9 8 7 6 4 4 0 5 6 8 8
WGst-- -- -- -- -- -- -- -- -- -- -- -- --
Raw hourly METARs
KEWR 242051Z 14010KT 10SM FEW033 BKN250 19/11 A3023 RMK AO2 SLP235 T01890111 56008
KEWR 242151Z 14009KT 10SM FEW033 BKN250 18/12 A3022 RMK AO2 SLP233 T01780117
KEWR 242251Z 12009KT 10SM FEW033 BKN250 17/11 A3022 RMK AO2 SLP232 T01720111
KEWR 242351Z 14008KT 10SM FEW032 BKN250 16/11 A3021 RMK AO2 SLP231 T01560106 10200 20156 56005
KEWR 250051Z 13007KT 10SM FEW030 BKN250 15/11 A3022 RMK AO2 SLP233 T01500111
KEWR 250151Z 14006KT 10SM FEW020 BKN250 15/12 A3023 RMK AO2 SLP236 T01500117
KEWR 250251Z 12004KT 10SM SCT020 BKN250 15/12 A3024 RMK AO2 SLP238 T01500117 53008
KEWR 250351Z 13004KT 10SM FEW012 SCT030 BKN250 14/12 A3023 RMK AO2 SLP237 T01440117
KEWR 250451Z 00000KT 10SM BKN019 BKN032 OVC250 14/12 A3023 RMK AO2 SLP235 T01440117 402000117
KEWR 250551Z 29005KT 10SM OVC019 15/12 A3020 RMK AO2 SLP227 T01500117 10156 20139 58012
KEWR 250651Z 01006KT 10SM OVC015 15/12 A3021 RMK AO2 SLP228 T01500117
KEWR 250751Z 02008KT 6SM -DZ BR FEW005 OVC008 14/12 A3021 RMK AO2 DZB32 SLP230 P0000 T01390122
KEWR 250851Z 03008KT 6SM -DZ BR OVC007 13/13 A3020 RMK AO2 SLP227 CIG 005V009 P0000 60000 T01330128 50000



Page loaded:  09:23 UTC  |   02:23 AM Pacific  |   03:23 AM Mountain  |   04:23 AM Central  |   05:23 AM Eastern

 

ADVISORIES

FORECASTS

FORECASTS

OBSERVATIONS

USER TOOLS

ABOUT US